Main page
METAR-TAF:

METAR-TAF

Airports :

Copernicus Airport Wrocław

Wrocław, Poland

latitude: 51-06N, longitude: 016-53E, elevation: 120 m

Current weather observation

The report was made 28 minutes ago, at 13:00 UTC
Wind 6 kt from the North/Northeast, varying between North/Northwest and East
Temperature 18°C
Humidity 30%
Pressure 1022 hPa
Visibility 10 km or more
no clouds below 1500 m and no cumulonimbus

METAR: EPWR 211300Z 02006KT 340V080 CAVOK 18/00 Q1022

Time: 15:28 (13:28 UTC)

Forecast

The report was made 1 hour and 58 minutes ago, at 11:30 UTC
Forecast valid from 21 at 12 UTC to 22 at 12 UTC
Wind 2 kt from variable directions
Visibility 10 km or more
no clouds below 1500 m and no cumulonimbus
Temporary
from 21 at 15 UTC to 21 at 24 UTC
Wind 10 kt from the North
Becoming
from 22 at 05 UTC to 22 at 08 UTC
Wind 12 kt from the East

TAF: EPWR 211130Z 2112/2212 VRB02KT CAVOK TEMPO 2115/2124 36010KT BECMG 2205/2208 08012KT

Weather observations and forecasts of more than 4000 airports (METAR and TAF reports).

The available stations are represented by yellow and red dots on the map.

Hover mouse over dot to see the name of the station.

Then click to see weather observations and forecasts.

To change the map : click on the green buttons with a black cross to zoom in, on the green button with a dash to zoom out, or on the green arrows for adjacent maps.


METAR-TAF: